sensor_id;sensor_type;location;lat;lon;timestamp;temperature;humidity
7686;DHT22;3885;51.474;-2.576;2023-07-02T00:04:26;12.50;99.90
7686;DHT22;3885;51.474;-2.576;2023-07-02T00:06:52;12.50;99.90
7686;DHT22;3885;51.474;-2.576;2023-07-02T00:09:19;12.40;99.90
7686;DHT22;3885;51.474;-2.576;2023-07-02T00:11:46;12.40;99.90
7686;DHT22;3885;51.474;-2.576;2023-07-02T00:14:14;12.30;99.90
7686;DHT22;3885;51.474;-2.576;2023-07-02T00:16:44;12.30;99.90
7686;DHT22;3885;51.474;-2.576;2023-07-02T00:19:11;12.30;99.90
7686;DHT22;3885;51.474;-2.576;2023-07-02T00:21:40;12.20;99.90
7686;DHT22;3885;51.474;-2.576;2023-07-02T00:24:08;12.20;99.90
7686;DHT22;3885;51.474;-2.576;2023-07-02T00:29:03;12.10;99.90
7686;DHT22;3885;51.474;-2.576;2023-07-02T00:31:31;12.00;99.90
7686;DHT22;3885;51.474;-2.576;2023-07-02T00:36:27;12.00;99.90
7686;DHT22;3885;51.474;-2.576;2023-07-02T00:38:56;11.90;99.90
7686;DHT22;3885;51.474;-2.576;2023-07-02T00:41:24;11.90;99.90
7686;DHT22;3885;51.474;-2.576;2023-07-02T00:43:51;11.90;99.90
7686;DHT22;3885;51.474;-2.576;2023-07-02T00:46:20;11.80;99.90
7686;DHT22;3885;51.474;-2.576;2023-07-02T00:48:48;11.80;99.90
7686;DHT22;3885;51.474;-2.576;2023-07-02T00:51:18;11.80;99.90
7686;DHT22;3885;51.474;-2.576;2023-07-02T00:53:45;11.70;99.90
7686;DHT22;3885;51.474;-2.576;2023-07-02T00:56:14;11.70;99.90
7686;DHT22;3885;51.474;-2.576;2023-07-02T00:58:43;11.70;99.90
7686;DHT22;3885;51.474;-2.576;2023-07-02T01:01:12;11.70;99.90
7686;DHT22;3885;51.474;-2.576;2023-07-02T01:03:49;11.70;99.90
7686;DHT22;3885;51.474;-2.576;2023-07-02T01:06:19;11.70;99.90
7686;DHT22;3885;51.474;-2.576;2023-07-02T01:08:51;11.60;99.90
7686;DHT22;3885;51.474;-2.576;2023-07-02T01:11:22;11.60;99.90
7686;DHT22;3885;51.474;-2.576;2023-07-02T01:13:51;11.60;99.90
7686;DHT22;3885;51.474;-2.576;2023-07-02T01:16:19;11.60;99.90
7686;DHT22;3885;51.474;-2.576;2023-07-02T01:18:48;11.50;99.90
7686;DHT22;3885;51.474;-2.576;2023-07-02T01:23:46;11.50;99.90
7686;DHT22;3885;51.474;-2.576;2023-07-02T01:26:13;11.50;99.90
7686;DHT22;3885;51.474;-2.576;2023-07-02T01:28:41;11.40;99.90
7686;DHT22;3885;51.474;-2.576;2023-07-02T01:31:08;11.50;99.90
7686;DHT22;3885;51.474;-2.576;2023-07-02T01:33:35;11.40;99.90
7686;DHT22;3885;51.474;-2.576;2023-07-02T01:36:02;11.40;99.90
7686;DHT22;3885;51.474;-2.576;2023-07-02T01:38:31;11.40;99.90
7686;DHT22;3885;51.474;-2.576;2023-07-02T01:40:58;11.40;99.90
7686;DHT22;3885;51.474;-2.576;2023-07-02T01:43:25;11.40;99.90
7686;DHT22;3885;51.474;-2.576;2023-07-02T01:45:52;11.40;99.90
7686;DHT22;3885;51.474;-2.576;2023-07-02T01:48:19;11.40;99.90
7686;DHT22;3885;51.474;-2.576;2023-07-02T01:50:46;11.40;99.90
7686;DHT22;3885;51.474;-2.576;2023-07-02T01:53:13;11.40;99.90
7686;DHT22;3885;51.474;-2.576;2023-07-02T01:55:41;11.40;99.90
7686;DHT22;3885;51.474;-2.576;2023-07-02T01:58:08;11.40;99.90
7686;DHT22;3885;51.474;-2.576;2023-07-02T02:00:35;11.40;99.90
7686;DHT22;3885;51.474;-2.576;2023-07-02T02:03:01;11.40;99.90
7686;DHT22;3885;51.474;-2.576;2023-07-02T02:05:28;11.30;99.90
7686;DHT22;3885;51.474;-2.576;2023-07-02T02:07:55;11.30;99.90
7686;DHT22;3885;51.474;-2.576;2023-07-02T02:10:22;11.20;99.90
7686;DHT22;3885;51.474;-2.576;2023-07-02T02:15:18;11.20;99.90
7686;DHT22;3885;51.474;-2.576;2023-07-02T02:17:45;11.10;99.90
7686;DHT22;3885;51.474;-2.576;2023-07-02T02:20:12;11.10;99.90
7686;DHT22;3885;51.474;-2.576;2023-07-02T02:22:39;11.10;99.90
7686;DHT22;3885;51.474;-2.576;2023-07-02T02:25:06;11.00;99.90
7686;DHT22;3885;51.474;-2.576;2023-07-02T02:27:33;11.00;99.90
7686;DHT22;3885;51.474;-2.576;2023-07-02T02:30:02;11.00;99.90
7686;DHT22;3885;51.474;-2.576;2023-07-02T02:34:56;11.00;99.90
7686;DHT22;3885;51.474;-2.576;2023-07-02T02:37:23;10.90;99.90
7686;DHT22;3885;51.474;-2.576;2023-07-02T02:39:50;10.90;99.90
7686;DHT22;3885;51.474;-2.576;2023-07-02T02:42:17;10.90;99.90
7686;DHT22;3885;51.474;-2.576;2023-07-02T02:44:43;10.90;99.90
7686;DHT22;3885;51.474;-2.576;2023-07-02T02:47:12;10.90;99.90
7686;DHT22;3885;51.474;-2.576;2023-07-02T02:49:39;10.80;99.90
7686;DHT22;3885;51.474;-2.576;2023-07-02T02:52:06;10.80;99.90
7686;DHT22;3885;51.474;-2.576;2023-07-02T02:54:33;10.80;99.90
7686;DHT22;3885;51.474;-2.576;2023-07-02T02:57:00;10.80;99.90
7686;DHT22;3885;51.474;-2.576;2023-07-02T02:59:27;10.80;99.90
7686;DHT22;3885;51.474;-2.576;2023-07-02T03:01:54;10.70;99.90
7686;DHT22;3885;51.474;-2.576;2023-07-02T03:04:22;10.70;99.90
7686;DHT22;3885;51.474;-2.576;2023-07-02T03:06:51;10.70;99.90
7686;DHT22;3885;51.474;-2.576;2023-07-02T03:09:18;10.60;99.90
7686;DHT22;3885;51.474;-2.576;2023-07-02T03:11:46;10.60;99.90
7686;DHT22;3885;51.474;-2.576;2023-07-02T03:16:41;10.60;99.90
7686;DHT22;3885;51.474;-2.576;2023-07-02T03:19:08;10.50;99.90
7686;DHT22;3885;51.474;-2.576;2023-07-02T03:24:03;10.40;99.90
7686;DHT22;3885;51.474;-2.576;2023-07-02T03:26:30;10.40;99.90
7686;DHT22;3885;51.474;-2.576;2023-07-02T03:28:57;10.40;99.90
7686;DHT22;3885;51.474;-2.576;2023-07-02T03:31:24;10.30;99.90
7686;DHT22;3885;51.474;-2.576;2023-07-02T03:33:51;10.30;99.90
7686;DHT22;3885;51.474;-2.576;2023-07-02T03:36:18;10.30;99.90
7686;DHT22;3885;51.474;-2.576;2023-07-02T03:41:13;10.30;99.90
7686;DHT22;3885;51.474;-2.576;2023-07-02T03:43:41;10.20;99.90
7686;DHT22;3885;51.474;-2.576;2023-07-02T03:46:08;10.20;99.90
7686;DHT22;3885;51.474;-2.576;2023-07-02T03:48:35;10.20;99.90
7686;DHT22;3885;51.474;-2.576;2023-07-02T03:51:02;10.10;99.90
7686;DHT22;3885;51.474;-2.576;2023-07-02T03:53:29;10.20;99.90
7686;DHT22;3885;51.474;-2.576;2023-07-02T03:55:57;10.20;99.90
7686;DHT22;3885;51.474;-2.576;2023-07-02T03:58:24;10.20;99.90
7686;DHT22;3885;51.474;-2.576;2023-07-02T04:00:51;10.20;99.90
7686;DHT22;3885;51.474;-2.576;2023-07-02T04:03:18;10.20;99.90
7686;DHT22;3885;51.474;-2.576;2023-07-02T04:05:45;10.20;99.90
7686;DHT22;3885;51.474;-2.576;2023-07-02T04:08:12;10.20;99.90
7686;DHT22;3885;51.474;-2.576;2023-07-02T04:10:39;10.20;99.90
7686;DHT22;3885;51.474;-2.576;2023-07-02T04:13:07;10.20;99.90
7686;DHT22;3885;51.474;-2.576;2023-07-02T04:15:35;10.20;99.90
7686;DHT22;3885;51.474;-2.576;2023-07-02T04:18:02;10.20;99.90
7686;DHT22;3885;51.474;-2.576;2023-07-02T04:20:29;10.20;99.90
7686;DHT22;3885;51.474;-2.576;2023-07-02T04:22:56;10.20;99.90
7686;DHT22;3885;51.474;-2.576;2023-07-02T04:25:23;10.20;99.90
7686;DHT22;3885;51.474;-2.576;2023-07-02T04:30:23;10.20;99.90
7686;DHT22;3885;51.474;-2.576;2023-07-02T04:32:50;10.20;99.90
7686;DHT22;3885;51.474;-2.576;2023-07-02T04:35:17;10.30;99.90
7686;DHT22;3885;51.474;-2.576;2023-07-02T04:37:44;10.30;99.90
7686;DHT22;3885;51.474;-2.576;2023-07-02T04:40:11;10.30;99.90
7686;DHT22;3885;51.474;-2.576;2023-07-02T04:42:40;10.40;99.90
7686;DHT22;3885;51.474;-2.576;2023-07-02T04:45:13;10.40;99.90
7686;DHT22;3885;51.474;-2.576;2023-07-02T04:50:09;10.60;99.90
7686;DHT22;3885;51.474;-2.576;2023-07-02T04:52:36;10.70;99.90
7686;DHT22;3885;51.474;-2.576;2023-07-02T04:57:30;10.70;99.90
7686;DHT22;3885;51.474;-2.576;2023-07-02T04:59:57;10.80;99.90
7686;DHT22;3885;51.474;-2.576;2023-07-02T05:04:53;10.90;99.90
7686;DHT22;3885;51.474;-2.576;2023-07-02T05:07:20;11.00;99.90
7686;DHT22;3885;51.474;-2.576;2023-07-02T05:09:47;11.00;99.90
7686;DHT22;3885;51.474;-2.576;2023-07-02T05:12:15;11.00;99.90
7686;DHT22;3885;51.474;-2.576;2023-07-02T05:14:42;11.00;99.90
7686;DHT22;3885;51.474;-2.576;2023-07-02T05:17:09;11.10;99.90
7686;DHT22;3885;51.474;-2.576;2023-07-02T05:19:36;11.10;99.90
7686;DHT22;3885;51.474;-2.576;2023-07-02T05:22:04;11.10;99.90
7686;DHT22;3885;51.474;-2.576;2023-07-02T05:26:58;11.30;99.90
7686;DHT22;3885;51.474;-2.576;2023-07-02T05:29:25;11.40;99.90
7686;DHT22;3885;51.474;-2.576;2023-07-02T05:31:52;11.60;99.90
7686;DHT22;3885;51.474;-2.576;2023-07-02T05:34:19;11.90;99.90
7686;DHT22;3885;51.474;-2.576;2023-07-02T05:36:46;12.10;99.90
7686;DHT22;3885;51.474;-2.576;2023-07-02T05:39:14;12.30;99.90
7686;DHT22;3885;51.474;-2.576;2023-07-02T05:41:41;12.50;99.90
7686;DHT22;3885;51.474;-2.576;2023-07-02T05:44:08;12.80;99.90
7686;DHT22;3885;51.474;-2.576;2023-07-02T05:46:35;13.00;99.90
7686;DHT22;3885;51.474;-2.576;2023-07-02T05:49:02;13.20;99.90
7686;DHT22;3885;51.474;-2.576;2023-07-02T05:51:29;13.40;99.90
7686;DHT22;3885;51.474;-2.576;2023-07-02T05:53:55;13.60;99.90
7686;DHT22;3885;51.474;-2.576;2023-07-02T05:56:24;13.70;99.90
7686;DHT22;3885;51.474;-2.576;2023-07-02T05:58:51;13.90;99.90
7686;DHT22;3885;51.474;-2.576;2023-07-02T06:01:18;14.10;99.90
7686;DHT22;3885;51.474;-2.576;2023-07-02T06:03:45;14.20;99.90
7686;DHT22;3885;51.474;-2.576;2023-07-02T06:06:11;14.30;99.90
7686;DHT22;3885;51.474;-2.576;2023-07-02T06:08:38;14.40;99.90
7686;DHT22;3885;51.474;-2.576;2023-07-02T06:11:05;14.50;99.90
7686;DHT22;3885;51.474;-2.576;2023-07-02T06:13:34;14.60;99.90
7686;DHT22;3885;51.474;-2.576;2023-07-02T06:16:00;14.70;99.90
7686;DHT22;3885;51.474;-2.576;2023-07-02T06:18:27;14.80;99.90
7686;DHT22;3885;51.474;-2.576;2023-07-02T06:20:54;14.80;99.90
7686;DHT22;3885;51.474;-2.576;2023-07-02T06:23:21;14.90;99.90
7686;DHT22;3885;51.474;-2.576;2023-07-02T06:25:48;15.00;99.90
7686;DHT22;3885;51.474;-2.576;2023-07-02T06:28:17;15.10;99.90
7686;DHT22;3885;51.474;-2.576;2023-07-02T06:30:46;15.20;99.90
7686;DHT22;3885;51.474;-2.576;2023-07-02T06:33:12;15.30;99.90
7686;DHT22;3885;51.474;-2.576;2023-07-02T06:35:39;15.40;99.90
7686;DHT22;3885;51.474;-2.576;2023-07-02T06:40:33;15.60;99.90
7686;DHT22;3885;51.474;-2.576;2023-07-02T06:43:00;15.80;99.90
7686;DHT22;3885;51.474;-2.576;2023-07-02T06:45:27;15.90;99.90
7686;DHT22;3885;51.474;-2.576;2023-07-02T06:47:56;16.00;99.90
7686;DHT22;3885;51.474;-2.576;2023-07-02T06:50:22;16.10;99.90
7686;DHT22;3885;51.474;-2.576;2023-07-02T06:52:49;16.00;99.90
7686;DHT22;3885;51.474;-2.576;2023-07-02T06:55:16;16.10;99.90
7686;DHT22;3885;51.474;-2.576;2023-07-02T06:57:43;16.20;99.90
7686;DHT22;3885;51.474;-2.576;2023-07-02T07:00:12;16.30;99.90
7686;DHT22;3885;51.474;-2.576;2023-07-02T07:02:39;16.30;99.90
7686;DHT22;3885;51.474;-2.576;2023-07-02T07:05:07;16.30;99.90
7686;DHT22;3885;51.474;-2.576;2023-07-02T07:07:35;16.30;99.90
7686;DHT22;3885;51.474;-2.576;2023-07-02T07:10:02;16.40;99.90
7686;DHT22;3885;51.474;-2.576;2023-07-02T07:14:56;16.20;99.90
7686;DHT22;3885;51.474;-2.576;2023-07-02T07:17:23;16.00;99.90
7686;DHT22;3885;51.474;-2.576;2023-07-02T07:19:50;15.90;99.90
7686;DHT22;3885;51.474;-2.576;2023-07-02T07:22:19;15.70;99.90
7686;DHT22;3885;51.474;-2.576;2023-07-02T07:24:45;15.80;99.90
7686;DHT22;3885;51.474;-2.576;2023-07-02T07:27:12;15.90;99.90
7686;DHT22;3885;51.474;-2.576;2023-07-02T07:29:39;16.20;99.90
7686;DHT22;3885;51.474;-2.576;2023-07-02T07:32:07;16.60;99.90
7686;DHT22;3885;51.474;-2.576;2023-07-02T07:34:34;16.80;99.90
7686;DHT22;3885;51.474;-2.576;2023-07-02T07:37:01;16.90;99.90
7686;DHT22;3885;51.474;-2.576;2023-07-02T07:39:29;17.10;99.90
7686;DHT22;3885;51.474;-2.576;2023-07-02T07:44:24;17.10;99.90
7686;DHT22;3885;51.474;-2.576;2023-07-02T07:46:54;17.00;99.90
7686;DHT22;3885;51.474;-2.576;2023-07-02T07:49:21;17.10;99.90
7686;DHT22;3885;51.474;-2.576;2023-07-02T07:51:48;17.20;99.90
7686;DHT22;3885;51.474;-2.576;2023-07-02T07:54:15;17.50;99.90
7686;DHT22;3885;51.474;-2.576;2023-07-02T07:56:43;17.70;99.90
7686;DHT22;3885;51.474;-2.576;2023-07-02T07:59:10;17.90;99.90
7686;DHT22;3885;51.474;-2.576;2023-07-02T08:01:38;18.00;99.90
7686;DHT22;3885;51.474;-2.576;2023-07-02T08:04:05;18.00;99.90
7686;DHT22;3885;51.474;-2.576;2023-07-02T08:06:32;18.00;99.90
7686;DHT22;3885;51.474;-2.576;2023-07-02T08:08:59;17.80;99.90
7686;DHT22;3885;51.474;-2.576;2023-07-02T08:11:26;17.80;99.90
7686;DHT22;3885;51.474;-2.576;2023-07-02T08:13:55;17.90;99.90
7686;DHT22;3885;51.474;-2.576;2023-07-02T08:16:22;18.10;99.90
7686;DHT22;3885;51.474;-2.576;2023-07-02T08:18:49;18.20;99.90
7686;DHT22;3885;51.474;-2.576;2023-07-02T08:21:16;18.10;99.90
7686;DHT22;3885;51.474;-2.576;2023-07-02T08:23:43;18.00;99.90
7686;DHT22;3885;51.474;-2.576;2023-07-02T08:26:10;17.80;99.90
7686;DHT22;3885;51.474;-2.576;2023-07-02T08:28:37;17.70;99.90
7686;DHT22;3885;51.474;-2.576;2023-07-02T08:31:06;17.70;99.90
7686;DHT22;3885;51.474;-2.576;2023-07-02T08:33:33;17.70;99.90
7686;DHT22;3885;51.474;-2.576;2023-07-02T08:35:59;17.70;99.90
7686;DHT22;3885;51.474;-2.576;2023-07-02T08:38:27;17.80;99.90
7686;DHT22;3885;51.474;-2.576;2023-07-02T08:43:22;17.70;99.90
7686;DHT22;3885;51.474;-2.576;2023-07-02T08:45:50;17.70;99.90
7686;DHT22;3885;51.474;-2.576;2023-07-02T08:48:20;17.80;99.90
7686;DHT22;3885;51.474;-2.576;2023-07-02T08:50:48;17.80;99.90
7686;DHT22;3885;51.474;-2.576;2023-07-02T08:53:15;17.80;99.90
7686;DHT22;3885;51.474;-2.576;2023-07-02T08:55:42;17.70;99.90
7686;DHT22;3885;51.474;-2.576;2023-07-02T08:58:09;17.90;99.90
7686;DHT22;3885;51.474;-2.576;2023-07-02T09:00:35;18.00;99.90
7686;DHT22;3885;51.474;-2.576;2023-07-02T09:03:12;18.00;99.90
7686;DHT22;3885;51.474;-2.576;2023-07-02T09:05:49;18.10;99.90
7686;DHT22;3885;51.474;-2.576;2023-07-02T09:08:23;18.00;99.90
7686;DHT22;3885;51.474;-2.576;2023-07-02T09:10:50;17.90;99.90
7686;DHT22;3885;51.474;-2.576;2023-07-02T09:13:17;18.00;99.90
7686;DHT22;3885;51.474;-2.576;2023-07-02T09:15:44;18.10;99.90
7686;DHT22;3885;51.474;-2.576;2023-07-02T09:18:15;18.20;99.90
7686;DHT22;3885;51.474;-2.576;2023-07-02T09:20:42;18.30;99.90
7686;DHT22;3885;51.474;-2.576;2023-07-02T09:23:10;18.10;99.90
7686;DHT22;3885;51.474;-2.576;2023-07-02T09:25:38;18.00;99.90
7686;DHT22;3885;51.474;-2.576;2023-07-02T09:28:14;18.00;99.90
7686;DHT22;3885;51.474;-2.576;2023-07-02T09:30:52;18.00;99.90
7686;DHT22;3885;51.474;-2.576;2023-07-02T09:33:19;18.10;99.90
7686;DHT22;3885;51.474;-2.576;2023-07-02T09:35:46;18.00;99.90
7686;DHT22;3885;51.474;-2.576;2023-07-02T09:38:15;18.00;99.90
7686;DHT22;3885;51.474;-2.576;2023-07-02T09:40:46;18.20;99.90
7686;DHT22;3885;51.474;-2.576;2023-07-02T09:43:14;18.40;99.90
7686;DHT22;3885;51.474;-2.576;2023-07-02T09:45:43;18.40;99.90
7686;DHT22;3885;51.474;-2.576;2023-07-02T09:48:13;18.40;99.90
7686;DHT22;3885;51.474;-2.576;2023-07-02T09:50:42;18.50;99.90
7686;DHT22;3885;51.474;-2.576;2023-07-02T09:53:09;18.60;99.90
7686;DHT22;3885;51.474;-2.576;2023-07-02T09:55:38;18.70;99.90
7686;DHT22;3885;51.474;-2.576;2023-07-02T09:58:05;18.80;99.90
7686;DHT22;3885;51.474;-2.576;2023-07-02T10:03:00;18.60;99.90
7686;DHT22;3885;51.474;-2.576;2023-07-02T10:07:55;19.10;99.90
7686;DHT22;3885;51.474;-2.576;2023-07-02T10:12:58;19.00;99.90
7686;DHT22;3885;51.474;-2.576;2023-07-02T10:17:57;19.00;99.90
7686;DHT22;3885;51.474;-2.576;2023-07-02T10:20:35;18.80;99.90
7686;DHT22;3885;51.474;-2.576;2023-07-02T10:25:31;18.80;99.90
7686;DHT22;3885;51.474;-2.576;2023-07-02T10:28:01;19.10;99.90
7686;DHT22;3885;51.474;-2.576;2023-07-02T10:30:31;19.00;99.90
7686;DHT22;3885;51.474;-2.576;2023-07-02T10:33:07;18.90;99.90
7686;DHT22;3885;51.474;-2.576;2023-07-02T10:40:32;19.00;99.90
7686;DHT22;3885;51.474;-2.576;2023-07-02T10:43:01;19.00;99.90
7686;DHT22;3885;51.474;-2.576;2023-07-02T10:45:32;19.30;99.90
7686;DHT22;3885;51.474;-2.576;2023-07-02T10:48:00;19.40;99.90
7686;DHT22;3885;51.474;-2.576;2023-07-02T10:50:27;19.60;99.90
7686;DHT22;3885;51.474;-2.576;2023-07-02T10:52:54;19.70;99.90
7686;DHT22;3885;51.474;-2.576;2023-07-02T10:55:22;19.30;99.90
7686;DHT22;3885;51.474;-2.576;2023-07-02T11:02:46;19.60;99.90
7686;DHT22;3885;51.474;-2.576;2023-07-02T11:05:13;19.60;99.90
7686;DHT22;3885;51.474;-2.576;2023-07-02T11:07:41;19.40;99.90
7686;DHT22;3885;51.474;-2.576;2023-07-02T11:10:09;19.40;99.90
7686;DHT22;3885;51.474;-2.576;2023-07-02T11:12:37;19.20;99.90
7686;DHT22;3885;51.474;-2.576;2023-07-02T11:15:07;19.10;99.90
7686;DHT22;3885;51.474;-2.576;2023-07-02T11:17:36;18.80;99.90
7686;DHT22;3885;51.474;-2.576;2023-07-02T11:20:04;18.90;99.90
7686;DHT22;3885;51.474;-2.576;2023-07-02T11:22:32;19.00;99.90
7686;DHT22;3885;51.474;-2.576;2023-07-02T11:27:35;18.60;99.90
7686;DHT22;3885;51.474;-2.576;2023-07-02T11:32:30;18.90;99.90
7686;DHT22;3885;51.474;-2.576;2023-07-02T11:34:58;19.20;99.90
7686;DHT22;3885;51.474;-2.576;2023-07-02T11:39:54;19.70;99.90
7686;DHT22;3885;51.474;-2.576;2023-07-02T11:42:20;19.80;99.90
7686;DHT22;3885;51.474;-2.576;2023-07-02T11:44:47;19.90;99.90
7686;DHT22;3885;51.474;-2.576;2023-07-02T11:49:41;19.80;99.90
7686;DHT22;3885;51.474;-2.576;2023-07-02T11:54:37;20.40;99.90
7686;DHT22;3885;51.474;-2.576;2023-07-02T11:57:05;20.70;99.90
7686;DHT22;3885;51.474;-2.576;2023-07-02T11:59:32;20.70;99.70
7686;DHT22;3885;51.474;-2.576;2023-07-02T12:01:59;20.70;99.60
7686;DHT22;3885;51.474;-2.576;2023-07-02T12:04:26;20.60;99.90
7686;DHT22;3885;51.474;-2.576;2023-07-02T12:06:53;20.50;99.70
7686;DHT22;3885;51.474;-2.576;2023-07-02T12:11:49;20.90;98.30
7686;DHT22;3885;51.474;-2.576;2023-07-02T12:14:15;21.00;98.20
7686;DHT22;3885;51.474;-2.576;2023-07-02T12:16:42;20.90;98.10
7686;DHT22;3885;51.474;-2.576;2023-07-02T12:19:09;20.70;98.30
7686;DHT22;3885;51.474;-2.576;2023-07-02T12:21:36;20.60;98.10
7686;DHT22;3885;51.474;-2.576;2023-07-02T12:24:03;20.50;98.20
7686;DHT22;3885;51.474;-2.576;2023-07-02T12:29:03;20.40;98.10
7686;DHT22;3885;51.474;-2.576;2023-07-02T12:31:30;20.50;97.90
7686;DHT22;3885;51.474;-2.576;2023-07-02T12:33:57;20.40;97.90
7686;DHT22;3885;51.474;-2.576;2023-07-02T12:36:24;20.40;97.50
7686;DHT22;3885;51.474;-2.576;2023-07-02T12:38:51;20.30;98.30
7686;DHT22;3885;51.474;-2.576;2023-07-02T12:41:18;20.10;98.20
7686;DHT22;3885;51.474;-2.576;2023-07-02T12:43:46;20.20;98.90
7686;DHT22;3885;51.474;-2.576;2023-07-02T12:46:13;20.30;99.40
7686;DHT22;3885;51.474;-2.576;2023-07-02T12:51:08;20.60;99.80
7686;DHT22;3885;51.474;-2.576;2023-07-02T12:53:34;20.50;99.50
7686;DHT22;3885;51.474;-2.576;2023-07-02T12:56:01;20.30;99.70
7686;DHT22;3885;51.474;-2.576;2023-07-02T12:58:28;20.20;99.90
7686;DHT22;3885;51.474;-2.576;2023-07-02T13:00:57;20.30;99.40
7686;DHT22;3885;51.474;-2.576;2023-07-02T13:03:24;20.40;99.70
7686;DHT22;3885;51.474;-2.576;2023-07-02T13:05:51;20.70;99.40
7686;DHT22;3885;51.474;-2.576;2023-07-02T13:08:18;20.80;99.90
7686;DHT22;3885;51.474;-2.576;2023-07-02T13:10:45;20.50;99.00
7686;DHT22;3885;51.474;-2.576;2023-07-02T13:13:12;20.50;99.70
7686;DHT22;3885;51.474;-2.576;2023-07-02T13:15:39;20.30;98.90
7686;DHT22;3885;51.474;-2.576;2023-07-02T13:18:07;20.20;99.70
7686;DHT22;3885;51.474;-2.576;2023-07-02T13:20:34;20.10;99.00
7686;DHT22;3885;51.474;-2.576;2023-07-02T13:23:02;20.10;99.60
7686;DHT22;3885;51.474;-2.576;2023-07-02T13:25:29;20.00;99.40
7686;DHT22;3885;51.474;-2.576;2023-07-02T13:27:56;20.00;99.70
7686;DHT22;3885;51.474;-2.576;2023-07-02T13:30:23;20.30;99.90
7686;DHT22;3885;51.474;-2.576;2023-07-02T13:32:51;20.50;98.80
7686;DHT22;3885;51.474;-2.576;2023-07-02T13:35:19;20.40;99.40
7686;DHT22;3885;51.474;-2.576;2023-07-02T13:37:48;20.10;99.50
7686;DHT22;3885;51.474;-2.576;2023-07-02T13:42:42;20.00;98.70
7686;DHT22;3885;51.474;-2.576;2023-07-02T13:47:37;20.00;99.30
7686;DHT22;3885;51.474;-2.576;2023-07-02T13:50:05;20.00;99.10
7686;DHT22;3885;51.474;-2.576;2023-07-02T13:52:33;20.10;99.80
7686;DHT22;3885;51.474;-2.576;2023-07-02T13:57:27;20.90;98.70
7686;DHT22;3885;51.474;-2.576;2023-07-02T13:59:56;21.20;98.90
7686;DHT22;3885;51.474;-2.576;2023-07-02T14:02:23;21.30;97.70
7686;DHT22;3885;51.474;-2.576;2023-07-02T14:04:50;21.40;98.80
7686;DHT22;3885;51.474;-2.576;2023-07-02T14:07:18;21.50;99.00
7686;DHT22;3885;51.474;-2.576;2023-07-02T14:09:45;21.30;98.40
7686;DHT22;3885;51.474;-2.576;2023-07-02T14:12:12;20.90;98.20
7686;DHT22;3885;51.474;-2.576;2023-07-02T14:14:39;20.90;98.70
7686;DHT22;3885;51.474;-2.576;2023-07-02T14:17:07;20.90;98.80
7686;DHT22;3885;51.474;-2.576;2023-07-02T14:19:34;21.10;98.80
7686;DHT22;3885;51.474;-2.576;2023-07-02T14:24:29;21.30;98.90
7686;DHT22;3885;51.474;-2.576;2023-07-02T14:29:24;21.50;98.00
7686;DHT22;3885;51.474;-2.576;2023-07-02T14:31:51;21.50;97.70
7686;DHT22;3885;51.474;-2.576;2023-07-02T14:34:19;21.50;98.60
7686;DHT22;3885;51.474;-2.576;2023-07-02T14:36:46;21.50;98.30
7686;DHT22;3885;51.474;-2.576;2023-07-02T14:39:13;21.50;98.50
7686;DHT22;3885;51.474;-2.576;2023-07-02T14:41:40;21.50;99.00
7686;DHT22;3885;51.474;-2.576;2023-07-02T14:49:01;21.40;98.70
7686;DHT22;3885;51.474;-2.576;2023-07-02T14:56:24;20.60;99.30
7686;DHT22;3885;51.474;-2.576;2023-07-02T14:58:51;20.80;99.20
7686;DHT22;3885;51.474;-2.576;2023-07-02T15:03:46;20.40;99.10
7686;DHT22;3885;51.474;-2.576;2023-07-02T15:06:15;20.50;99.60
7686;DHT22;3885;51.474;-2.576;2023-07-02T15:08:44;20.40;99.20
7686;DHT22;3885;51.474;-2.576;2023-07-02T15:11:12;20.40;99.20
7686;DHT22;3885;51.474;-2.576;2023-07-02T15:13:39;20.60;99.20
7686;DHT22;3885;51.474;-2.576;2023-07-02T15:21:02;20.30;99.80
7686;DHT22;3885;51.474;-2.576;2023-07-02T15:23:30;20.30;99.90
7686;DHT22;3885;51.474;-2.576;2023-07-02T15:26:01;20.40;99.90
7686;DHT22;3885;51.474;-2.576;2023-07-02T15:28:28;20.40;99.90
7686;DHT22;3885;51.474;-2.576;2023-07-02T15:30:57;20.50;99.90
7686;DHT22;3885;51.474;-2.576;2023-07-02T15:35:52;20.90;98.50
7686;DHT22;3885;51.474;-2.576;2023-07-02T15:38:19;20.80;98.10
7686;DHT22;3885;51.474;-2.576;2023-07-02T15:40:48;20.70;97.60
7686;DHT22;3885;51.474;-2.576;2023-07-02T15:45:43;20.50;97.60
7686;DHT22;3885;51.474;-2.576;2023-07-02T15:48:11;20.50;97.90
7686;DHT22;3885;51.474;-2.576;2023-07-02T15:50:37;20.70;97.70
7686;DHT22;3885;51.474;-2.576;2023-07-02T15:55:34;20.80;97.90
7686;DHT22;3885;51.474;-2.576;2023-07-02T15:58:01;20.70;97.90
7686;DHT22;3885;51.474;-2.576;2023-07-02T16:00:29;20.90;98.60
7686;DHT22;3885;51.474;-2.576;2023-07-02T16:02:56;21.00;97.50
7686;DHT22;3885;51.474;-2.576;2023-07-02T16:05:23;20.90;98.90
7686;DHT22;3885;51.474;-2.576;2023-07-02T16:07:50;20.70;99.40
7686;DHT22;3885;51.474;-2.576;2023-07-02T16:10:18;20.70;98.10
7686;DHT22;3885;51.474;-2.576;2023-07-02T16:12:44;20.50;97.80
7686;DHT22;3885;51.474;-2.576;2023-07-02T16:15:11;20.40;97.80
7686;DHT22;3885;51.474;-2.576;2023-07-02T16:20:07;20.40;97.50
7686;DHT22;3885;51.474;-2.576;2023-07-02T16:22:34;20.30;97.40
7686;DHT22;3885;51.474;-2.576;2023-07-02T16:25:01;20.40;97.80
7686;DHT22;3885;51.474;-2.576;2023-07-02T16:29:56;20.30;97.70
7686;DHT22;3885;51.474;-2.576;2023-07-02T16:32:23;20.30;98.30
7686;DHT22;3885;51.474;-2.576;2023-07-02T16:34:53;20.00;98.60
7686;DHT22;3885;51.474;-2.576;2023-07-02T16:37:20;20.10;98.70
7686;DHT22;3885;51.474;-2.576;2023-07-02T16:47:09;19.90;99.20
7686;DHT22;3885;51.474;-2.576;2023-07-02T16:49:36;19.70;98.90
7686;DHT22;3885;51.474;-2.576;2023-07-02T16:52:05;19.80;99.40
7686;DHT22;3885;51.474;-2.576;2023-07-02T16:54:32;19.90;99.20
7686;DHT22;3885;51.474;-2.576;2023-07-02T16:57:00;19.70;99.30
7686;DHT22;3885;51.474;-2.576;2023-07-02T16:59:30;19.60;99.10
7686;DHT22;3885;51.474;-2.576;2023-07-02T17:02:04;19.40;99.30
7686;DHT22;3885;51.474;-2.576;2023-07-02T17:04:33;19.20;99.50
7686;DHT22;3885;51.474;-2.576;2023-07-02T17:07:00;19.20;99.90
7686;DHT22;3885;51.474;-2.576;2023-07-02T17:09:31;19.40;99.80
7686;DHT22;3885;51.474;-2.576;2023-07-02T17:11:59;19.50;99.70
7686;DHT22;3885;51.474;-2.576;2023-07-02T17:16:58;19.40;99.90
7686;DHT22;3885;51.474;-2.576;2023-07-02T17:19:27;19.40;99.90
7686;DHT22;3885;51.474;-2.576;2023-07-02T17:21:55;19.50;99.90
7686;DHT22;3885;51.474;-2.576;2023-07-02T17:26:53;19.40;99.90
7686;DHT22;3885;51.474;-2.576;2023-07-02T17:29:20;19.30;99.90
7686;DHT22;3885;51.474;-2.576;2023-07-02T17:31:49;19.50;99.90
7686;DHT22;3885;51.474;-2.576;2023-07-02T17:34:18;19.60;99.90
7686;DHT22;3885;51.474;-2.576;2023-07-02T17:36:47;19.50;99.90
7686;DHT22;3885;51.474;-2.576;2023-07-02T17:39:16;19.50;99.90
7686;DHT22;3885;51.474;-2.576;2023-07-02T17:41:44;19.40;99.90
7686;DHT22;3885;51.474;-2.576;2023-07-02T17:44:12;19.50;99.90
7686;DHT22;3885;51.474;-2.576;2023-07-02T17:46:40;19.40;99.90
7686;DHT22;3885;51.474;-2.576;2023-07-02T17:49:08;19.50;99.90
7686;DHT22;3885;51.474;-2.576;2023-07-02T17:51:35;19.60;99.90
7686;DHT22;3885;51.474;-2.576;2023-07-02T17:54:03;19.50;99.90
7686;DHT22;3885;51.474;-2.576;2023-07-02T17:56:31;19.50;99.90
7686;DHT22;3885;51.474;-2.576;2023-07-02T17:58:58;19.50;99.90
7686;DHT22;3885;51.474;-2.576;2023-07-02T18:01:27;19.60;99.90
7686;DHT22;3885;51.474;-2.576;2023-07-02T18:03:54;19.50;99.90
7686;DHT22;3885;51.474;-2.576;2023-07-02T18:06:22;19.40;99.90
7686;DHT22;3885;51.474;-2.576;2023-07-02T18:08:49;19.40;99.90